Grande Portogallo — IBZW — position and weather

sailwx.info

Track history (hours):
 
Tides and Currents Weather Stations Pressure Air Temp Water Temp Dewpoint Dewpoint Depression Visibility Wind Speed Wind Dir Waves Ship Positions

Grande Portogallo

Last reported at 2017-Jan-22 19:33 UTC. Time now 2017-Jan-22 20:17 UTC.
Position N 51°39' E 002°25'.

Length 176 m; draft 7.6 m.

Type: Cargo ship. MMSI: 247065500.

Date/timePositionNaut miles runAvg speedWind from/ knotsBaromVisibWave heightAir tempDewpointWater temp
2017-Jan-22 19:33N 51°39' E 002°25'1616.2
2017-Jan-22 18:33N 51°26' E 002°08'1615.9
2017-Jan-22 17:33N 51°14' E 001°51'1615.5
2017-Jan-22 16:33N 51°02' E 001°35'1514.8
2017-Jan-22 15:33N 50°49' E 001°24'1514.6
2017-Jan-22 14:33N 50°37' E 001°12'1615.4
2017-Jan-22 13:29N 50°28' E 000°50'1415.6
2017-Jan-22 12:33N 50°24' E 000°29'1515.1
2017-Jan-22 11:33N 50°21' E 000°05'1514.9
2017-Jan-22 10:33N 50°26' W 000°17'1515.1
2017-Jan-22 09:33N 50°33' W 000°38'1514.6
2017-Jan-22 08:34N 50°41' W 000°57'1514.7
2017-Jan-22 07:34N 50°47' W 001°19'8 8.3
2017-Jan-22 06:33N 50°54' W 001°25'0 0.2
2017-Jan-22 05:33N 50°54' W 001°25'0 0.0
2017-Jan-22 04:33N 50°54' W 001°25'0 0.0
2017-Jan-22 03:33N 50°54' W 001°25'0 0.0
2017-Jan-22 02:33N 50°54' W 001°25'0 0.0
2017-Jan-22 01:33N 50°54' W 001°25'0 0.0
2017-Jan-22 00:33N 50°54' W 001°25'0 0.0
2017-Jan-21 23:33N 50°54' W 001°25'0 0.0
2017-Jan-21 22:33N 50°54' W 001°25'0 0.0
2017-Jan-21 21:32N 50°54' W 001°25'0 0.0
2017-Jan-21 20:33N 50°54' W 001°25'0 0.0
2017-Jan-21 19:33N 50°54' W 001°25'0 0.0
2017-Jan-21 18:33N 50°54' W 001°25'0 0.0
2017-Jan-21 17:33N 50°54' W 001°25'0 0.0
2017-Jan-21 16:33N 50°54' W 001°25'2 1.7
2017-Jan-21 15:33N 50°53' W 001°24'1111.0
2017-Jan-21 14:33N 50°46' W 001°10'1312.6
2017-Jan-21 13:33N 50°36' W 000°59'1010.3
2017-Jan-21 12:33N 50°30' W 001°13'1815.6
2017-Jan-21 11:23N 50°26' W 001°41'3216.9
2017-Jan-21 09:30N 50°18' W 002°29'1516.5
2017-Jan-21 08:33N 50°14' W 002°53'1716.7
2017-Jan-21 07:34N 50°10' W 003°18'1716.7
2017-Jan-21 06:33N 50°06' W 003°43'1717.0
2017-Jan-21 05:33N 50°01' W 004°08'1717.1
2017-Jan-21 04:33N 49°56' W 004°34'1716.6
2017-Jan-21 03:32N 49°50' W 004°59'1716.5
2017-Jan-21 02:32N 49°50' W 005°24'2016.7
2017-Jan-21 01:22N 49°50' W 005°55'1315.9
2017-Jan-21 00:32N 50°03' W 006°01'1817.3
2017-Jan-20 23:31N 50°20' W 006°04'8617.0
2017-Jan-20 18:26N 51°22' W 007°39'1516.9
2017-Jan-20 17:33N 51°32' W 007°56'1716.8
2017-Jan-20 16:33N 51°45' W 008°15'6 6.0
2017-Jan-20 15:32N 51°50' W 008°20'0 0.0
2017-Jan-20 14:33N 51°50' W 008°20'0 0.0
2017-Jan-20 13:33N 51°50' W 008°20'0 0.0
2017-Jan-20 12:33N 51°50' W 008°20'0 0.0
2017-Jan-20 11:33N 51°50' W 008°20'0 0.0
2017-Jan-20 10:33N 51°50' W 008°20'0 0.0
2017-Jan-20 09:33N 51°50' W 008°20'0 0.0
2017-Jan-20 08:33N 51°50' W 008°20'0 0.0
2017-Jan-20 07:33N 51°50' W 008°20'2 2.2
2017-Jan-20 06:33N 51°50' W 008°16'8 8.4
2017-Jan-20 05:33N 51°41' W 008°14'9 9.0
2017-Jan-20 04:33N 51°40' W 007°60'10 9.3
2017-Jan-20 03:31N 51°39' W 007°44'10 9.2
2017-Jan-20 02:28N 51°38' W 007°29'9 9.1
2017-Jan-20 01:32N 51°37' W 007°15'3415.2
2017-Jan-19 23:19N 51°30' W 006°22'3115.4
2017-Jan-19 21:17N 51°25' W 005°32'1215.0
2017-Jan-19 20:31N 51°24' W 005°14'1414.6
2017-Jan-19 19:34N 51°22' W 004°52'1514.8
2017-Jan-19 18:33N 51°21' W 004°28'1515.2
2017-Jan-19 17:33N 51°20' W 004°04'1616.3
2017-Jan-19 16:34N 51°20' W 003°38'1716.3
2017-Jan-19 15:31N 51°22' W 003°10'1717.6
2017-Jan-19 14:34N 51°30' W 002°47'2 2.4
2017-Jan-19 13:34N 51°30' W 002°43'0 0.1
2017-Jan-19 12:33N 51°30' W 002°43'0 0.0
2017-Jan-19 11:33N 51°30' W 002°43'0 0.0
2017-Jan-19 10:33N 51°30' W 002°43'0 0.0
2017-Jan-19 09:33N 51°30' W 002°43'0 0.0
2017-Jan-19 08:33N 51°30' W 002°43'0 0.0
2017-Jan-19 07:33N 51°30' W 002°43'0 0.0
2017-Jan-19 06:33N 51°30' W 002°43'0 0.0
2017-Jan-19 05:33N 51°30' W 002°43'0 0.0
2017-Jan-19 04:33N 51°30' W 002°43'0 0.0
2017-Jan-19 03:33N 51°30' W 002°43'0 0.0
2017-Jan-19 02:33N 51°30' W 002°43'0 0.0
2017-Jan-19 01:33N 51°30' W 002°43'0 0.0
2017-Jan-19 00:33N 51°30' W 002°43'0 0.0
2017-Jan-18 23:33N 51°30' W 002°43'1 0.6
2017-Jan-18 22:33N 51°30' W 002°44'9 9.5
2017-Jan-18 21:33N 51°27' W 002°58'1817.9
2017-Jan-18 20:33N 51°21' W 003°25'1817.4
2017-Jan-18 19:31N 51°19' W 003°54'1616.4
2017-Jan-18 18:33N 51°14' W 004°18'1716.7
2017-Jan-18 17:33N 51°03' W 004°38'1817.5
2017-Jan-18 16:33N 50°52' W 004°59'1717.2
2017-Jan-18 15:34N 50°40' W 005°19'2017.0
2017-Jan-18 14:22N 50°27' W 005°43'69317.0
2017-Jan-16 21:32N 39°17' W 009°52'1717.0
2017-Jan-16 20:33N 39°00' W 009°52'1716.8
2017-Jan-16 19:33N 38°44' W 009°51'1716.7
2017-Jan-16 18:33N 38°27' W 009°46'1717.2
2017-Jan-16 17:33N 38°11' W 009°41'1717.2
2017-Jan-16 16:33N 37°54' W 009°36'40714.0
2017-Jan-15 11:33N 37°13' W 001°06'1716.9
2017-Jan-15 10:33N 37°24' W 000°49'1716.8
2017-Jan-15 09:33N 37°35' W 000°33'1717.1
2017-Jan-15 08:33N 37°49' W 000°22'9613.8
2017-Jan-15 01:33N 39°25' W 000°17'1 1.3
2017-Jan-15 00:33N 39°26' W 000°18'0 0.0
2017-Jan-14 23:33N 39°26' W 000°18'0 0.0
2017-Jan-14 22:33N 39°26' W 000°18'0 0.0
2017-Jan-14 21:33N 39°26' W 000°18'0 0.0
2017-Jan-14 20:33N 39°26' W 000°18'0 0.0
2017-Jan-14 19:33N 39°26' W 000°18'0 0.0
2017-Jan-14 18:33N 39°26' W 000°18'0 0.0
2017-Jan-14 17:33N 39°26' W 000°18'0 0.0
2017-Jan-14 16:33N 39°26' W 000°18'0 0.0
2017-Jan-14 15:33N 39°26' W 000°18'0 0.0
2017-Jan-14 14:33N 39°26' W 000°18'0 0.0
2017-Jan-14 13:33N 39°26' W 000°18'0 0.0
2017-Jan-14 12:33N 39°26' W 000°18'3 2.8
2017-Jan-14 11:19N 39°25' W 000°14'7613.2
2017-Jan-14 05:32N 40°18' E 000°57'1616.2
2017-Jan-14 04:33N 40°29' E 001°13'1616.2
2017-Jan-14 03:33N 40°39' E 001°29'19715.9
2017-Jan-13 15:10N 43°05' E 004°26'1514.0
2017-Jan-13 14:05N 43°12' E 004°44'815.5
2017-Jan-13 13:33N 43°15' E 004°55'9 8.8
2017-Jan-13 12:33N 43°24' E 004°51'0 0.3
2017-Jan-13 11:33N 43°24' E 004°51'0 0.0
2017-Jan-13 10:34N 43°24' E 004°51'0 0.0
2017-Jan-13 09:34N 43°24' E 004°51'0 0.0
2017-Jan-13 08:33N 43°24' E 004°51'0 0.0
2017-Jan-13 07:33N 43°24' E 004°51'0 0.0
2017-Jan-13 06:33N 43°24' E 004°51'1 0.6
2017-Jan-13 05:33N 43°24' E 004°52'8 8.2
2017-Jan-13 04:33N 43°18' E 004°60'1311.8
2017-Jan-13 03:29N 43°08' E 005°10'7314.9
2017-Jan-12 22:33N 43°05' E 006°50'1716.7
2017-Jan-12 21:33N 43°14' E 007°09'1616.5
2017-Jan-12 20:33N 43°24' E 007°27'1716.6
2017-Jan-12 19:33N 43°36' E 007°44'  
Track history (hours):
 
Tides and Currents Weather Stations Pressure Air Temp Water Temp Dewpoint Dewpoint Depression Visibility Wind Speed Wind Dir Waves Ship Positions

Grande Portogallo

Last reported at 2017-Jan-22 19:33 UTC. Time now 2017-Jan-22 20:17 UTC.
Position N 51°39' E 002°25'.

Length 176 m; draft 7.6 m.

Type: Cargo ship. MMSI: 247065500.

Date/timePositionNaut miles runAvg speedWind from/ knotsBaromVisibWave heightAir tempDewpointWater temp
2017-Jan-22 19:33N 51°39' E 002°25'1616.2
2017-Jan-22 18:33N 51°26' E 002°08'1615.9
2017-Jan-22 17:33N 51°14' E 001°51'1615.5
2017-Jan-22 16:33N 51°02' E 001°35'1514.8
2017-Jan-22 15:33N 50°49' E 001°24'1514.6
2017-Jan-22 14:33N 50°37' E 001°12'1615.4
2017-Jan-22 13:29N 50°28' E 000°50'1415.6
2017-Jan-22 12:33N 50°24' E 000°29'1515.1
2017-Jan-22 11:33N 50°21' E 000°05'1514.9
2017-Jan-22 10:33N 50°26' W 000°17'1515.1
2017-Jan-22 09:33N 50°33' W 000°38'1514.6
2017-Jan-22 08:34N 50°41' W 000°57'1514.7
2017-Jan-22 07:34N 50°47' W 001°19'8 8.3
2017-Jan-22 06:33N 50°54' W 001°25'0 0.2
2017-Jan-22 05:33N 50°54' W 001°25'0 0.0
2017-Jan-22 04:33N 50°54' W 001°25'0 0.0
2017-Jan-22 03:33N 50°54' W 001°25'0 0.0
2017-Jan-22 02:33N 50°54' W 001°25'0 0.0
2017-Jan-22 01:33N 50°54' W 001°25'0 0.0
2017-Jan-22 00:33N 50°54' W 001°25'0 0.0
2017-Jan-21 23:33N 50°54' W 001°25'0 0.0
2017-Jan-21 22:33N 50°54' W 001°25'0 0.0
2017-Jan-21 21:32N 50°54' W 001°25'0 0.0
2017-Jan-21 20:33N 50°54' W 001°25'0 0.0
2017-Jan-21 19:33N 50°54' W 001°25'0 0.0
2017-Jan-21 18:33N 50°54' W 001°25'0 0.0
2017-Jan-21 17:33N 50°54' W 001°25'0 0.0
2017-Jan-21 16:33N 50°54' W 001°25'2 1.7
2017-Jan-21 15:33N 50°53' W 001°24'1111.0
2017-Jan-21 14:33N 50°46' W 001°10'1312.6
2017-Jan-21 13:33N 50°36' W 000°59'1010.3
2017-Jan-21 12:33N 50°30' W 001°13'1815.6
2017-Jan-21 11:23N 50°26' W 001°41'3216.9
2017-Jan-21 09:30N 50°18' W 002°29'1516.5
2017-Jan-21 08:33N 50°14' W 002°53'1716.7
2017-Jan-21 07:34N 50°10' W 003°18'1716.7
2017-Jan-21 06:33N 50°06' W 003°43'1717.0
2017-Jan-21 05:33N 50°01' W 004°08'1717.1
2017-Jan-21 04:33N 49°56' W 004°34'1716.6
2017-Jan-21 03:32N 49°50' W 004°59'1716.5
2017-Jan-21 02:32N 49°50' W 005°24'2016.7
2017-Jan-21 01:22N 49°50' W 005°55'1315.9
2017-Jan-21 00:32N 50°03' W 006°01'1817.3
2017-Jan-20 23:31N 50°20' W 006°04'8617.0
2017-Jan-20 18:26N 51°22' W 007°39'1516.9
2017-Jan-20 17:33N 51°32' W 007°56'1716.8
2017-Jan-20 16:33N 51°45' W 008°15'6 6.0
2017-Jan-20 15:32N 51°50' W 008°20'0 0.0
2017-Jan-20 14:33N 51°50' W 008°20'0 0.0
2017-Jan-20 13:33N 51°50' W 008°20'0 0.0
2017-Jan-20 12:33N 51°50' W 008°20'0 0.0
2017-Jan-20 11:33N 51°50' W 008°20'0 0.0
2017-Jan-20 10:33N 51°50' W 008°20'0 0.0
2017-Jan-20 09:33N 51°50' W 008°20'0 0.0
2017-Jan-20 08:33N 51°50' W 008°20'0 0.0
2017-Jan-20 07:33N 51°50' W 008°20'2 2.2
2017-Jan-20 06:33N 51°50' W 008°16'8 8.4
2017-Jan-20 05:33N 51°41' W 008°14'9 9.0
2017-Jan-20 04:33N 51°40' W 007°60'10 9.3
2017-Jan-20 03:31N 51°39' W 007°44'10 9.2
2017-Jan-20 02:28N 51°38' W 007°29'9 9.1
2017-Jan-20 01:32N 51°37' W 007°15'3415.2
2017-Jan-19 23:19N 51°30' W 006°22'3115.4
2017-Jan-19 21:17N 51°25' W 005°32'1215.0
2017-Jan-19 20:31N 51°24' W 005°14'1414.6
2017-Jan-19 19:34N 51°22' W 004°52'1514.8
2017-Jan-19 18:33N 51°21' W 004°28'1515.2
2017-Jan-19 17:33N 51°20' W 004°04'1616.3
2017-Jan-19 16:34N 51°20' W 003°38'1716.3
2017-Jan-19 15:31N 51°22' W 003°10'1717.6
2017-Jan-19 14:34N 51°30' W 002°47'2 2.4
2017-Jan-19 13:34N 51°30' W 002°43'0 0.1
2017-Jan-19 12:33N 51°30' W 002°43'0 0.0
2017-Jan-19 11:33N 51°30' W 002°43'0 0.0
2017-Jan-19 10:33N 51°30' W 002°43'0 0.0
2017-Jan-19 09:33N 51°30' W 002°43'0 0.0
2017-Jan-19 08:33N 51°30' W 002°43'0 0.0
2017-Jan-19 07:33N 51°30' W 002°43'0 0.0
2017-Jan-19 06:33N 51°30' W 002°43'0 0.0
2017-Jan-19 05:33N 51°30' W 002°43'0 0.0
2017-Jan-19 04:33N 51°30' W 002°43'0 0.0
2017-Jan-19 03:33N 51°30' W 002°43'0 0.0
2017-Jan-19 02:33N 51°30' W 002°43'0 0.0
2017-Jan-19 01:33N 51°30' W 002°43'0 0.0
2017-Jan-19 00:33N 51°30' W 002°43'0 0.0
2017-Jan-18 23:33N 51°30' W 002°43'1 0.6
2017-Jan-18 22:33N 51°30' W 002°44'9 9.5
2017-Jan-18 21:33N 51°27' W 002°58'1817.9
2017-Jan-18 20:33N 51°21' W 003°25'1817.4
2017-Jan-18 19:31N 51°19' W 003°54'1616.4
2017-Jan-18 18:33N 51°14' W 004°18'1716.7
2017-Jan-18 17:33N 51°03' W 004°38'1817.5
2017-Jan-18 16:33N 50°52' W 004°59'1717.2
2017-Jan-18 15:34N 50°40' W 005°19'2017.0
2017-Jan-18 14:22N 50°27' W 005°43'69317.0
2017-Jan-16 21:32N 39°17' W 009°52'1717.0
2017-Jan-16 20:33N 39°00' W 009°52'1716.8
2017-Jan-16 19:33N 38°44' W 009°51'1716.7
2017-Jan-16 18:33N 38°27' W 009°46'1717.2
2017-Jan-16 17:33N 38°11' W 009°41'1717.2
2017-Jan-16 16:33N 37°54' W 009°36'40714.0
2017-Jan-15 11:33N 37°13' W 001°06'1716.9
2017-Jan-15 10:33N 37°24' W 000°49'1716.8
2017-Jan-15 09:33N 37°35' W 000°33'1717.1
2017-Jan-15 08:33N 37°49' W 000°22'9613.8
2017-Jan-15 01:33N 39°25' W 000°17'1 1.3
2017-Jan-15 00:33N 39°26' W 000°18'0 0.0
2017-Jan-14 23:33N 39°26' W 000°18'0 0.0
2017-Jan-14 22:33N 39°26' W 000°18'0 0.0
2017-Jan-14 21:33N 39°26' W 000°18'0 0.0
2017-Jan-14 20:33N 39°26' W 000°18'0 0.0
2017-Jan-14 19:33N 39°26' W 000°18'0 0.0
2017-Jan-14 18:33N 39°26' W 000°18'0 0.0
2017-Jan-14 17:33N 39°26' W 000°18'0 0.0
2017-Jan-14 16:33N 39°26' W 000°18'0 0.0
2017-Jan-14 15:33N 39°26' W 000°18'0 0.0
2017-Jan-14 14:33N 39°26' W 000°18'0 0.0
2017-Jan-14 13:33N 39°26' W 000°18'0 0.0
2017-Jan-14 12:33N 39°26' W 000°18'3 2.8
2017-Jan-14 11:19N 39°25' W 000°14'7613.2
2017-Jan-14 05:32N 40°18' E 000°57'1616.2
2017-Jan-14 04:33N 40°29' E 001°13'1616.2
2017-Jan-14 03:33N 40°39' E 001°29'19715.9
2017-Jan-13 15:10N 43°05' E 004°26'1514.0
2017-Jan-13 14:05N 43°12' E 004°44'815.5
2017-Jan-13 13:33N 43°15' E 004°55'9 8.8
2017-Jan-13 12:33N 43°24' E 004°51'0 0.3
2017-Jan-13 11:33N 43°24' E 004°51'0 0.0
2017-Jan-13 10:34N 43°24' E 004°51'0 0.0
2017-Jan-13 09:34N 43°24' E 004°51'0 0.0
2017-Jan-13 08:33N 43°24' E 004°51'0 0.0
2017-Jan-13 07:33N 43°24' E 004°51'0 0.0
2017-Jan-13 06:33N 43°24' E 004°51'1 0.6
2017-Jan-13 05:33N 43°24' E 004°52'8 8.2
2017-Jan-13 04:33N 43°18' E 004°60'1311.8
2017-Jan-13 03:29N 43°08' E 005°10'7314.9
2017-Jan-12 22:33N 43°05' E 006°50'1716.7
2017-Jan-12 21:33N 43°14' E 007°09'1616.5
2017-Jan-12 20:33N 43°24' E 007°27'1716.6
2017-Jan-12 19:33N 43°36' E 007°44'  

Dump ship's entire track history